createdAt,value
2022-10-29T00:01:10.881Z,96240.31
2022-10-29T00:03:39.388Z,96241.97
2022-10-29T00:06:12.761Z,96237.25
2022-10-29T00:08:42.152Z,96238.78
2022-10-29T00:11:13.878Z,96215.91
2022-10-29T00:13:45.936Z,96195.34
2022-10-29T00:16:16.186Z,96222.31
2022-10-29T00:18:45.010Z,96226.34
2022-10-29T00:21:18.617Z,96226.16
2022-10-29T00:23:48.666Z,96231.53
2022-10-29T00:26:18.336Z,96218.72
2022-10-29T00:28:46.554Z,96225.41
2022-10-29T00:31:17.013Z,96215.75
2022-10-29T00:33:45.329Z,96211.44
2022-10-29T00:36:16.811Z,96208.81
2022-10-29T00:38:45.556Z,96213.44
2022-10-29T00:41:16.775Z,96218.94
2022-10-29T00:43:50.908Z,96205.16
2022-10-29T00:46:25.927Z,96184.66
2022-10-29T00:48:57.023Z,96208.84
2022-10-29T00:51:27.702Z,96202.16
2022-10-29T00:54:04.113Z,96208.44
2022-10-29T00:56:37.783Z,96200.16
2022-10-29T00:59:07.969Z,96214.09
2022-10-29T01:01:36.463Z,96214.19
2022-10-29T01:04:08.738Z,96203.50
2022-10-29T01:06:39.186Z,96166.25
2022-10-29T01:09:08.197Z,96188.03
2022-10-29T01:11:49.555Z,96162.59
2022-10-29T01:14:31.382Z,96202.38
2022-10-29T01:17:07.542Z,96191.59
2022-10-29T01:19:57.720Z,96188.50
2022-10-29T01:22:39.020Z,96175.50
2022-10-29T01:25:33.880Z,96184.59
2022-10-29T01:28:14.297Z,96191.59
2022-10-29T01:31:06.808Z,96165.44
2022-10-29T01:33:43.699Z,96163.34
2022-10-29T01:36:20.470Z,96180.25
2022-10-29T01:38:54.826Z,96185.91
2022-10-29T01:41:27.702Z,96183.81
2022-10-29T01:44:00.461Z,96172.72
2022-10-29T01:46:38.335Z,96168.06
2022-10-29T01:49:16.482Z,96174.00
2022-10-29T01:51:46.660Z,96175.22
2022-10-29T01:54:15.358Z,96175.69
2022-10-29T01:56:43.818Z,96174.22
2022-10-29T01:59:28.689Z,96166.59
2022-10-29T02:02:13.188Z,96172.06
2022-10-29T02:04:56.501Z,96162.25
2022-10-29T02:07:36.623Z,96165.00
2022-10-29T02:10:14.651Z,96160.03
2022-10-29T02:12:49.121Z,96161.19
2022-10-29T02:15:20.886Z,96163.91
2022-10-29T02:17:50.826Z,96159.22
2022-10-29T02:20:22.131Z,96147.75
2022-10-29T02:22:50.605Z,96159.84
2022-10-29T02:25:19.006Z,96161.91
2022-10-29T02:27:48.280Z,96173.94
2022-10-29T02:30:16.977Z,96154.72
2022-10-29T02:32:45.488Z,96156.84
2022-10-29T02:35:15.189Z,96152.78
2022-10-29T02:37:44.676Z,96158.25
2022-10-29T02:40:14.663Z,96155.16
2022-10-29T02:42:43.528Z,96158.38
2022-10-29T02:45:12.010Z,96147.69
2022-10-29T02:47:40.296Z,96154.75
2022-10-29T02:50:10.406Z,96170.13
2022-10-29T02:52:39.912Z,96150.94
2022-10-29T02:55:08.623Z,96158.19
2022-10-29T02:57:37.116Z,96151.78
2022-10-29T03:00:06.700Z,96156.38
2022-10-29T03:02:35.500Z,96159.41
2022-10-29T03:05:05.837Z,96160.22
2022-10-29T03:07:36.844Z,96167.88
2022-10-29T03:10:08.751Z,96162.03
2022-10-29T03:12:36.934Z,96156.16
2022-10-29T03:15:06.329Z,96156.22
2022-10-29T03:17:35.130Z,96151.47
2022-10-29T03:20:03.333Z,96149.91
2022-10-29T03:22:31.395Z,96150.03
2022-10-29T03:24:59.425Z,96149.25
2022-10-29T03:27:29.180Z,96137.72
2022-10-29T03:29:57.448Z,96135.41
2022-10-29T03:32:26.102Z,96149.25
2022-10-29T03:34:57.436Z,96148.09
2022-10-29T03:37:28.514Z,96140.16
2022-10-29T03:39:57.190Z,96138.56
2022-10-29T03:42:25.308Z,96137.84
2022-10-29T03:44:54.759Z,96130.94
2022-10-29T03:47:24.460Z,96127.88
2022-10-29T03:49:52.438Z,96135.59
2022-10-29T03:52:20.837Z,96131.75
2022-10-29T03:54:51.391Z,96143.31
2022-10-29T03:57:19.591Z,96150.25
2022-10-29T03:59:51.635Z,96141.75
2022-10-29T04:02:22.293Z,96144.00
2022-10-29T04:04:50.521Z,96136.44
2022-10-29T04:07:18.889Z,96141.88
2022-10-29T04:09:47.023Z,96146.53
2022-10-29T04:12:16.066Z,96143.56
2022-10-29T04:14:45.949Z,96148.19
2022-10-29T04:17:14.747Z,96150.44
2022-10-29T04:19:44.968Z,96155.09
2022-10-29T04:28:41.860Z,96165.84
2022-10-29T04:30:37.710Z,96147.41
2022-10-29T04:33:07.556Z,96172.00
2022-10-29T04:35:37.011Z,96164.72
2022-10-29T04:38:09.760Z,96167.75
2022-10-29T04:40:38.462Z,96162.72
2022-10-29T04:43:07.771Z,96159.28
2022-10-29T04:45:38.417Z,96164.19
2022-10-29T04:48:07.830Z,96168.72
2022-10-29T04:50:41.221Z,96133.53
2022-10-29T04:53:10.395Z,96167.06
2022-10-29T04:55:39.933Z,96172.75
2022-10-29T04:58:09.307Z,96124.22
2022-10-29T05:00:37.997Z,96157.00
2022-10-29T05:03:06.289Z,96156.28
2022-10-29T05:05:34.586Z,96166.25
2022-10-29T05:08:06.949Z,96158.47
2022-10-29T05:10:36.856Z,96173.88
2022-10-29T05:13:08.240Z,96172.25
2022-10-29T05:15:36.671Z,96169.22
2022-10-29T05:18:05.734Z,96142.44
2022-10-29T05:20:34.449Z,96174.53
2022-10-29T05:23:06.162Z,96163.44
2022-10-29T05:25:36.896Z,96171.47
2022-10-29T05:28:06.450Z,96168.41
2022-10-29T05:30:35.738Z,96128.97
2022-10-29T05:33:06.781Z,96174.13
2022-10-29T05:35:36.141Z,96171.75
2022-10-29T05:38:06.210Z,96173.94
2022-10-29T05:40:34.671Z,96175.56
2022-10-29T05:43:03.088Z,96178.47
2022-10-29T05:45:31.443Z,96179.19
2022-10-29T05:48:00.222Z,96192.91
2022-10-29T05:50:30.689Z,96184.56
2022-10-29T05:52:59.926Z,96160.16
2022-10-29T05:55:30.699Z,96181.63
2022-10-29T05:57:59.593Z,96186.88
2022-10-29T06:00:29.275Z,96185.16
2022-10-29T06:02:58.161Z,96197.09
2022-10-29T06:05:27.107Z,96185.94
2022-10-29T06:07:56.313Z,96191.41
2022-10-29T06:10:25.124Z,96194.88
2022-10-29T06:12:54.630Z,96192.84
2022-10-29T06:15:22.921Z,96199.81
2022-10-29T06:17:51.406Z,96179.09
2022-10-29T06:20:21.815Z,96195.59
2022-10-29T06:22:58.938Z,96202.81
2022-10-29T06:25:28.792Z,96198.22
2022-10-29T06:28:03.163Z,96167.25
2022-10-29T06:30:32.807Z,96207.13
2022-10-29T06:33:01.516Z,96186.88
2022-10-29T06:35:31.162Z,96192.16
2022-10-29T06:37:59.787Z,96199.81
2022-10-29T06:40:29.480Z,96137.03
2022-10-29T06:43:03.399Z,96176.69
2022-10-29T06:45:32.731Z,96189.69
2022-10-29T06:48:01.140Z,96197.38
2022-10-29T06:50:33.227Z,96193.50
2022-10-29T06:53:04.121Z,96200.50
2022-10-29T06:55:32.187Z,96140.06
2022-10-29T06:58:04.814Z,96195.03
2022-10-29T07:00:34.528Z,96182.06
2022-10-29T07:03:03.626Z,96193.84
2022-10-29T07:05:31.986Z,96195.03
2022-10-29T07:08:01.676Z,96156.22
2022-10-29T07:10:31.794Z,96197.16
2022-10-29T07:13:04.520Z,96197.09
2022-10-29T07:15:36.439Z,96203.00
2022-10-29T07:18:07.223Z,96197.41
2022-10-29T07:20:39.063Z,96199.00
2022-10-29T07:23:07.137Z,96199.19
2022-10-29T07:25:37.269Z,96209.03
2022-10-29T07:28:07.015Z,96195.00
2022-10-29T07:30:36.942Z,96206.97
2022-10-29T07:33:05.200Z,96213.56
2022-10-29T07:35:34.305Z,96215.53
2022-10-29T07:38:05.424Z,96173.41
2022-10-29T07:40:39.574Z,96201.75
2022-10-29T07:43:07.972Z,96200.00
2022-10-29T07:45:37.832Z,96196.38
2022-10-29T07:48:08.602Z,96198.56
2022-10-29T07:50:39.466Z,96194.31
2022-10-29T07:53:08.486Z,96187.84
2022-10-29T07:55:36.911Z,96190.94
2022-10-29T07:58:07.054Z,96189.94
2022-10-29T08:00:41.262Z,96193.75
2022-10-29T08:03:09.819Z,96205.84
2022-10-29T08:05:42.538Z,96190.94
2022-10-29T08:08:11.429Z,96189.84
2022-10-29T08:10:40.083Z,96191.41
2022-10-29T08:13:08.681Z,96183.63
2022-10-29T08:15:38.126Z,96184.13
2022-10-29T08:18:12.816Z,96122.47
2022-10-29T08:20:41.966Z,96173.16
2022-10-29T08:23:10.720Z,96147.72
2022-10-29T08:25:41.644Z,96168.94
2022-10-29T08:28:11.816Z,96176.47
2022-10-29T08:30:44.360Z,96126.56
2022-10-29T08:33:12.695Z,96161.91
2022-10-29T08:35:40.855Z,96172.06
2022-10-29T08:38:09.346Z,96159.00
2022-10-29T08:40:49.740Z,96160.84
2022-10-29T08:43:56.725Z,96147.81
2022-10-29T08:46:39.764Z,96151.69
2022-10-29T08:49:16.480Z,96152.22
2022-10-29T08:51:49.922Z,96147.31
2022-10-29T08:54:31.050Z,96144.09
2022-10-29T08:57:03.358Z,96150.63
2022-10-29T08:59:39.461Z,96139.09
2022-10-29T09:02:15.269Z,96137.22
2022-10-29T09:04:45.511Z,96148.56
2022-10-29T09:07:55.244Z,96136.47
2022-10-29T09:10:33.907Z,96136.31
2022-10-29T09:13:14.634Z,96141.69
2022-10-29T09:16:01.566Z,96134.06
2022-10-29T09:18:44.471Z,96118.19
2022-10-29T09:21:22.996Z,96132.28
2022-10-29T09:24:08.903Z,96121.16
2022-10-29T09:26:46.633Z,96132.25
2022-10-29T09:29:44.461Z,96126.81
2022-10-29T09:32:18.007Z,96110.19
2022-10-29T09:34:50.875Z,96119.59
2022-10-29T09:37:24.571Z,96114.75
2022-10-29T09:39:56.043Z,96118.84
2022-10-29T09:42:39.116Z,96104.44
2022-10-29T09:45:14.709Z,96102.63
2022-10-29T09:47:55.577Z,96098.09
2022-10-29T09:50:31.735Z,96024.88
2022-10-29T09:53:01.065Z,96078.03
2022-10-29T09:55:35.853Z,96091.25
2022-10-29T09:58:04.464Z,96087.47
2022-10-29T10:00:35.086Z,96082.34
2022-10-29T10:03:09.316Z,96080.00
2022-10-29T10:05:58.368Z,96082.63
2022-10-29T10:08:28.135Z,96061.69
2022-10-29T10:10:59.318Z,96076.53
2022-10-29T10:13:31.422Z,96055.97
2022-10-29T10:16:01.422Z,96061.13
2022-10-29T10:18:41.608Z,96061.66
2022-10-29T10:21:12.685Z,96050.44
2022-10-29T10:23:46.663Z,96033.75
2022-10-29T10:26:37.360Z,96039.28
2022-10-29T10:29:13.278Z,96041.22
2022-10-29T10:31:41.758Z,96030.25
2022-10-29T10:34:16.121Z,96030.25
2022-10-29T10:36:49.923Z,96021.84
2022-10-29T10:39:26.097Z,96021.19
2022-10-29T10:41:55.706Z,96012.72
2022-10-29T10:44:24.581Z,96003.25
2022-10-29T10:46:55.467Z,96009.09
2022-10-29T10:49:31.621Z,95985.66
2022-10-29T10:52:04.620Z,96001.13
2022-10-29T10:54:38.402Z,95992.09
2022-10-29T10:57:20.689Z,95978.97
2022-10-29T10:59:58.393Z,95980.75
2022-10-29T11:02:35.049Z,95980.84
2022-10-29T11:05:19.957Z,95975.56
2022-10-29T11:08:00.209Z,95965.78
2022-10-29T11:10:34.772Z,95965.06
2022-10-29T11:13:07.670Z,95973.31
2022-10-29T11:15:41.216Z,95967.28
2022-10-29T11:18:18.629Z,95963.41
2022-10-29T11:20:52.169Z,95953.63
2022-10-29T11:23:40.822Z,95919.50
2022-10-29T11:26:13.120Z,95929.91
2022-10-29T11:28:49.941Z,95927.84
2022-10-29T11:31:23.758Z,95932.50
2022-10-29T11:34:05.959Z,95925.81
2022-10-29T11:36:41.100Z,95929.91
2022-10-29T11:39:20.796Z,95911.09
2022-10-29T11:41:57.905Z,95918.31
2022-10-29T11:44:27.609Z,95924.13
2022-10-29T11:47:09.187Z,95916.66
2022-10-29T11:49:55.838Z,95913.13
2022-10-29T11:52:35.548Z,95912.38
2022-10-29T11:55:18.013Z,95901.28
2022-10-29T11:57:53.734Z,95904.72
2022-10-29T12:00:26.909Z,95901.31
2022-10-29T12:03:20.421Z,95897.56
2022-10-29T12:06:00.298Z,95897.47
2022-10-29T12:08:45.899Z,95891.53
2022-10-29T12:11:23.774Z,95888.59
2022-10-29T12:14:03.712Z,95889.03
2022-10-29T12:16:46.101Z,95881.06
2022-10-29T12:19:28.084Z,95875.03
2022-10-29T12:22:05.051Z,95868.44
2022-10-29T12:24:48.003Z,95870.13
2022-10-29T12:27:25.139Z,95863.66
2022-10-29T12:30:00.396Z,95868.78
2022-10-29T12:32:34.411Z,95855.13
2022-10-29T12:35:10.216Z,95870.66
2022-10-29T12:37:44.477Z,95860.63
2022-10-29T12:40:20.892Z,95860.09
2022-10-29T12:42:51.965Z,95861.44
2022-10-29T12:45:32.920Z,95868.50
2022-10-29T12:48:09.495Z,95858.22
2022-10-29T12:50:47.885Z,95855.03
2022-10-29T12:53:27.036Z,95853.28
2022-10-29T12:55:56.488Z,95828.50
2022-10-29T12:58:50.120Z,95844.53
2022-10-29T13:04:36.435Z,95835.78
2022-10-29T13:07:07.113Z,95826.50
2022-10-29T13:09:36.414Z,95830.75
2022-10-29T13:12:08.590Z,95825.50
2022-10-29T13:14:44.150Z,95823.97
2022-10-29T13:17:29.158Z,95821.69
2022-10-29T13:19:59.680Z,95823.50
2022-10-29T13:22:54.419Z,95815.25
2022-10-29T13:25:50.041Z,95810.50
2022-10-29T13:28:47.740Z,95816.53
2022-10-29T13:32:03.612Z,95826.00
2022-10-29T13:34:57.380Z,95819.00
2022-10-29T13:38:11.431Z,95819.78
2022-10-29T13:41:12.094Z,95799.75
2022-10-29T13:43:43.121Z,95815.03
2022-10-29T13:46:47.706Z,95815.53
2022-10-29T13:49:21.615Z,95805.47
2022-10-29T13:51:55.218Z,95796.66
2022-10-29T13:54:33.588Z,95810.09
2022-10-29T13:57:06.017Z,95802.81
2022-10-29T13:59:40.554Z,95803.84
2022-10-29T14:02:27.354Z,95791.09
2022-10-29T14:04:59.801Z,95809.66
2022-10-29T14:07:36.094Z,95804.78
2022-10-29T14:10:16.042Z,95799.88
2022-10-29T14:12:46.666Z,95752.41
2022-10-29T14:15:16.921Z,95798.84
2022-10-29T14:17:46.266Z,95792.28
2022-10-29T14:20:22.527Z,95801.16
2022-10-29T14:22:52.002Z,95797.19
2022-10-29T14:25:33.234Z,95794.44
2022-10-29T14:28:26.537Z,95785.69
2022-10-29T14:31:04.039Z,95792.00
2022-10-29T14:33:35.430Z,95782.72
2022-10-29T14:36:15.229Z,95783.22
2022-10-29T14:38:48.052Z,95766.69
2022-10-29T14:41:17.614Z,95745.41
2022-10-29T14:43:51.663Z,95785.19
2022-10-29T14:46:26.365Z,95788.91
2022-10-29T14:49:00.294Z,95789.97
2022-10-29T14:51:28.916Z,95792.69
2022-10-29T14:54:02.076Z,95781.94
2022-10-29T14:56:35.882Z,95759.84
2022-10-29T14:59:13.657Z,95786.16
2022-10-29T15:01:57.117Z,95786.94
2022-10-29T15:04:31.414Z,95774.34
2022-10-29T15:07:19.023Z,95779.59
2022-10-29T15:09:48.389Z,95792.31
2022-10-29T15:12:21.866Z,95790.56
2022-10-29T15:14:51.668Z,95785.03
2022-10-29T15:17:24.329Z,95782.50
2022-10-29T15:19:55.571Z,95783.41
2022-10-29T15:22:36.934Z,95788.38
2022-10-29T15:25:09.084Z,95801.19
2022-10-29T15:27:38.374Z,95792.56
2022-10-29T15:30:07.618Z,95794.00
2022-10-29T15:32:35.703Z,95799.25
2022-10-29T15:35:03.961Z,95801.38
2022-10-29T15:37:46.154Z,95809.25
2022-10-29T15:40:17.773Z,95796.25
2022-10-29T15:42:46.579Z,95807.78
2022-10-29T15:45:28.954Z,95803.09
2022-10-29T15:47:59.897Z,95804.00
2022-10-29T15:50:40.863Z,95801.44
2022-10-29T15:53:15.472Z,95805.50
2022-10-29T15:55:44.875Z,95822.53
2022-10-29T15:58:15.966Z,95812.41
2022-10-29T16:01:00.328Z,95825.31
2022-10-29T16:03:28.674Z,95823.97
2022-10-29T16:06:01.098Z,95810.47
2022-10-29T16:08:35.067Z,95832.16
2022-10-29T16:11:09.805Z,95835.75
2022-10-29T16:13:38.147Z,95814.88
2022-10-29T16:16:07.988Z,95833.03
2022-10-29T16:18:36.557Z,95836.94
2022-10-29T16:21:07.921Z,95838.09
2022-10-29T16:23:39.510Z,95838.47
2022-10-29T16:26:11.478Z,95805.56
2022-10-29T16:28:40.881Z,95831.50
2022-10-29T16:31:20.855Z,95847.00
2022-10-29T16:33:48.975Z,95844.50
2022-10-29T16:36:17.373Z,95847.72
2022-10-29T16:38:46.140Z,95855.63
2022-10-29T16:41:18.777Z,95845.78
2022-10-29T16:43:48.589Z,95855.75
2022-10-29T16:46:16.945Z,95845.56
2022-10-29T16:48:45.898Z,95845.38
2022-10-29T16:51:13.923Z,95848.16
2022-10-29T16:53:42.181Z,95849.84
2022-10-29T16:56:10.123Z,95845.31
2022-10-29T16:58:39.908Z,95843.59
2022-10-29T17:01:10.602Z,95847.09
2022-10-29T17:03:39.187Z,95849.25
2022-10-29T17:06:09.148Z,95858.94
2022-10-29T17:08:38.595Z,95851.91
2022-10-29T17:11:10.383Z,95848.56
2022-10-29T17:13:40.045Z,95849.97
2022-10-29T17:16:08.909Z,95864.34
2022-10-29T17:18:37.053Z,95864.59
2022-10-29T17:21:10.042Z,95859.16
2022-10-29T17:23:38.110Z,95861.91
2022-10-29T17:26:06.799Z,95871.06
2022-10-29T17:28:36.918Z,95868.00
2022-10-29T17:31:08.275Z,95868.44
2022-10-29T17:33:37.030Z,95872.81
2022-10-29T17:36:06.780Z,95868.75
2022-10-29T17:38:37.782Z,95864.69
2022-10-29T17:41:06.340Z,95866.88
2022-10-29T17:43:35.193Z,95872.19
2022-10-29T17:46:03.095Z,95871.16
2022-10-29T17:48:33.139Z,95872.03
2022-10-29T17:51:03.310Z,95869.34
2022-10-29T17:53:32.174Z,95870.84
2022-10-29T17:56:00.479Z,95877.34
2022-10-29T17:58:29.222Z,95818.22
2022-10-29T18:01:06.018Z,95872.69
2022-10-29T18:03:36.147Z,95865.13
2022-10-29T18:06:06.042Z,95870.09
2022-10-29T18:08:36.241Z,95880.53
2022-10-29T18:11:05.408Z,95881.16
2022-10-29T18:13:38.705Z,95887.25
2022-10-29T18:16:07.309Z,95873.91
2022-10-29T18:18:48.245Z,95888.25
2022-10-29T18:21:27.255Z,95884.81
2022-10-29T18:23:55.555Z,95893.28
2022-10-29T18:26:27.005Z,95894.81
2022-10-29T18:28:56.880Z,95895.84
2022-10-29T18:31:27.815Z,95893.75
2022-10-29T18:33:58.077Z,95895.69
2022-10-29T18:36:26.174Z,95898.41
2022-10-29T18:38:55.793Z,95899.34
2022-10-29T18:41:25.196Z,95906.75
2022-10-29T18:43:54.637Z,95907.78
2022-10-29T18:46:24.497Z,95893.25
2022-10-29T18:48:52.892Z,95903.25
2022-10-29T18:51:24.564Z,95895.69
2022-10-29T18:53:53.681Z,95880.59
2022-10-29T18:56:24.237Z,95898.09
2022-10-29T18:58:52.252Z,95894.50
2022-10-29T19:01:22.873Z,95895.69
2022-10-29T19:03:52.829Z,95885.72
2022-10-29T19:06:24.136Z,95869.34
2022-10-29T19:08:52.332Z,95877.19
2022-10-29T19:11:21.927Z,95893.22
2022-10-29T19:13:52.284Z,95886.84
2022-10-29T19:16:22.394Z,95874.16
2022-10-29T19:18:55.984Z,95885.63
2022-10-29T19:21:26.730Z,95878.66
2022-10-29T19:23:56.192Z,95885.00
2022-10-29T19:26:25.901Z,95891.94
2022-10-29T19:28:54.314Z,95893.13
2022-10-29T19:31:26.383Z,95895.06
2022-10-29T19:33:56.077Z,95906.44
2022-10-29T19:36:31.746Z,95899.44
2022-10-29T19:39:01.128Z,95896.09
2022-10-29T19:41:30.676Z,95904.47
2022-10-29T19:44:01.455Z,95896.13
2022-10-29T19:46:30.633Z,95896.16
2022-10-29T19:49:00.768Z,95888.88
2022-10-29T19:51:30.432Z,95908.56
2022-10-29T19:54:02.074Z,95898.59
2022-10-29T19:56:30.570Z,95913.25
2022-10-29T19:59:01.026Z,95907.00
2022-10-29T20:01:29.188Z,95901.81
2022-10-29T20:03:59.609Z,95907.84
2022-10-29T20:06:29.517Z,95905.25
2022-10-29T20:08:57.429Z,95898.09
2022-10-29T20:11:25.674Z,95914.78
2022-10-29T20:13:54.095Z,95897.41
2022-10-29T20:16:23.156Z,95903.47
2022-10-29T20:18:52.422Z,95914.72
2022-10-29T20:21:20.666Z,95923.38
2022-10-29T20:23:50.171Z,95916.44
2022-10-29T20:26:18.502Z,95924.91
2022-10-29T20:28:48.042Z,95919.03
2022-10-29T20:31:30.412Z,95926.22
2022-10-29T20:34:02.859Z,95917.06
2022-10-29T20:36:32.771Z,95906.97
2022-10-29T20:39:02.619Z,95928.63
2022-10-29T20:41:31.913Z,95926.69
2022-10-29T20:44:01.379Z,95924.63
2022-10-29T20:46:30.712Z,95904.38
2022-10-29T20:48:59.296Z,95935.28
2022-10-29T20:51:29.463Z,95931.16
2022-10-29T20:53:57.900Z,95863.06
2022-10-29T20:56:28.503Z,95931.38
2022-10-29T20:58:56.818Z,95932.25
2022-10-29T21:01:26.119Z,95911.22
2022-10-29T21:03:54.632Z,95930.28
2022-10-29T21:06:23.789Z,95922.06
2022-10-29T21:08:53.924Z,95939.28
2022-10-29T21:11:23.822Z,95935.28
2022-10-29T21:13:53.559Z,95913.94
2022-10-29T21:16:23.354Z,95931.06
2022-10-29T21:18:52.992Z,95923.25
2022-10-29T21:21:21.725Z,95924.34
2022-10-29T21:23:50.436Z,95917.38
2022-10-29T21:26:21.474Z,95910.78
2022-10-29T21:28:50.425Z,95914.78
2022-10-29T21:31:20.811Z,95917.72
2022-10-29T21:33:51.183Z,95920.44
2022-10-29T21:36:20.224Z,95918.75
2022-10-29T21:38:48.612Z,95911.50
2022-10-29T21:41:17.493Z,95897.53
2022-10-29T21:43:46.726Z,95895.56
2022-10-29T21:46:14.723Z,95873.53
2022-10-29T21:48:44.361Z,95908.97
2022-10-29T21:51:17.339Z,95912.78
2022-10-29T21:53:45.709Z,95902.91
2022-10-29T21:56:15.554Z,95901.28
2022-10-29T21:58:44.277Z,95887.72
2022-10-29T22:01:14.632Z,95902.56
2022-10-29T22:03:46.829Z,95905.97
2022-10-29T22:06:17.151Z,95907.91
2022-10-29T22:08:46.125Z,95899.94
2022-10-29T22:11:16.204Z,95901.03
2022-10-29T22:13:45.503Z,95896.56
2022-10-29T22:16:13.684Z,95891.88
2022-10-29T22:18:43.293Z,95894.22
2022-10-29T22:21:13.885Z,95896.94
2022-10-29T22:23:45.961Z,95893.06
2022-10-29T22:26:16.564Z,95893.06
2022-10-29T22:28:45.052Z,95900.09
2022-10-29T22:31:13.170Z,95895.56
2022-10-29T22:33:46.973Z,95874.53
2022-10-29T22:36:17.351Z,95884.34
2022-10-29T22:38:45.843Z,95883.56
2022-10-29T22:41:17.032Z,95887.31
2022-10-29T22:43:47.249Z,95891.44
2022-10-29T22:46:17.018Z,95882.72
2022-10-29T22:48:48.869Z,95900.00
2022-10-29T22:51:19.806Z,95860.69
2022-10-29T22:53:48.526Z,95861.34
2022-10-29T22:56:18.521Z,95895.19
2022-10-29T22:58:47.174Z,95900.00
2022-10-29T23:01:16.549Z,95903.72
2022-10-29T23:03:47.128Z,95897.53
2022-10-29T23:06:17.462Z,95855.09
2022-10-29T23:08:46.004Z,95890.91
2022-10-29T23:11:19.611Z,95895.56
2022-10-29T23:13:49.325Z,95891.41
2022-10-29T23:16:18.301Z,95889.16
2022-10-29T23:18:54.190Z,95882.09
2022-10-29T23:21:22.936Z,95862.31
2022-10-29T23:23:51.262Z,95893.22
2022-10-29T23:26:20.834Z,95889.66
2022-10-29T23:28:50.195Z,95895.94
2022-10-29T23:31:20.029Z,95859.78
2022-10-29T23:33:51.414Z,95895.44
2022-10-29T23:36:20.587Z,95885.16
2022-10-29T23:38:48.925Z,95883.47
2022-10-29T23:41:16.894Z,95879.41
2022-10-29T23:43:45.494Z,95873.13
2022-10-29T23:46:13.763Z,95864.81
2022-10-29T23:48:41.922Z,95868.75
2022-10-29T23:51:11.571Z,95859.16
2022-10-29T23:53:39.989Z,95835.84
2022-10-29T23:56:12.040Z,95875.72
2022-10-29T23:58:40.232Z,95868.41
